CES156 ZSPD-EGLL
Flight info
| Callsign | CES156 |
|---|---|
| Flight time | N/A |
| Altitude | 30100 |
| Route | PIK82D PIKAS G330 PIMOL/K0915S0980 A593 DALIM W157 BEKDO/K0917S0950 W157 VYK G212 SOTMU/K0911S0980 B339 POLHO Y520 SERNA/K0902F340 R497 TODES/K0887F360 B228 HMN L870 RANVA/N0481F360 L870 RESMO DCT ETPIG/N0475F380 DCT GORAX DCT ALASA DCT IZZEX N872 PAM L980 LOGAN |
| Aircraft | A346/H-SDE2E3FGHIJ3J4J5M1RWXY/LB1D1 |
Departure
| Time | N/A |
|---|---|
| Airport | Shanghai Pudong International Airport (ZSPD) |
Arrival
| Time | 2026-05-06 04:33 |
|---|---|
| Airport | London Heathrow Airport (EGLL) |
| Time | Latitude | Longitude | Altitude | Speed | Heading |
|---|---|---|---|---|---|
| 2026-05-06 02:29 | 57.62130 | 19.27680 | 31978 ft | 415 kts | 246° |
| 2026-05-06 02:30 | 57.60913 | 19.22875 | 31981 ft | 415 kts | 246° |
| 2026-05-06 02:30 | 57.58422 | 19.13064 | 31981 ft | 415 kts | 246° |
| 2026-05-06 02:31 | 57.55965 | 19.03438 | 31968 ft | 412 kts | 246° |
| 2026-05-06 02:31 | 57.53501 | 18.93813 | 31994 ft | 412 kts | 246° |
| 2026-05-06 02:32 | 57.51027 | 18.84184 | 31983 ft | 412 kts | 246° |
| 2026-05-06 02:32 | 57.48545 | 18.74583 | 31981 ft | 412 kts | 246° |
| 2026-05-06 02:33 | 57.45297 | 18.62073 | 31981 ft | 411 kts | 246° |
| 2026-05-06 02:34 | 57.41141 | 18.46167 | 31978 ft | 411 kts | 246° |
| 2026-05-06 02:34 | 57.38631 | 18.36615 | 31978 ft | 411 kts | 246° |
| 2026-05-06 02:35 | 57.36100 | 18.27019 | 32361 ft | 415 kts | 246° |
| 2026-05-06 02:35 | 57.34834 | 18.22235 | 32957 ft | 411 kts | 246° |
| 2026-05-06 02:35 | 57.33577 | 18.17494 | 33550 ft | 409 kts | 245° |
| 2026-05-06 02:35 | 57.32322 | 18.12767 | 34066 ft | 408 kts | 245° |
| 2026-05-06 02:36 | 57.31064 | 18.08045 | 34420 ft | 409 kts | 245° |
| 2026-05-06 02:36 | 57.29799 | 18.03310 | 34745 ft | 411 kts | 245° |
| 2026-05-06 02:36 | 57.28530 | 17.98569 | 35051 ft | 412 kts | 245° |
| 2026-05-06 02:36 | 57.27253 | 17.93809 | 35363 ft | 414 kts | 245° |
| 2026-05-06 02:37 | 57.25970 | 17.89035 | 35669 ft | 415 kts | 245° |
| 2026-05-06 02:37 | 57.24680 | 17.84242 | 35919 ft | 417 kts | 245° |
| 2026-05-06 02:37 | 57.23382 | 17.79434 | 35963 ft | 418 kts | 245° |
| 2026-05-06 02:38 | 57.20781 | 17.69833 | 35954 ft | 416 kts | 245° |
| 2026-05-06 02:38 | 57.18198 | 17.60332 | 35969 ft | 413 kts | 245° |
| 2026-05-06 02:39 | 57.15613 | 17.50856 | 35970 ft | 413 kts | 245° |
| 2026-05-06 02:39 | 57.13023 | 17.41404 | 35970 ft | 413 kts | 245° |
| 2026-05-06 02:40 | 57.10424 | 17.31960 | 35971 ft | 413 kts | 245° |
| 2026-05-06 02:40 | 57.07838 | 17.22600 | 35971 ft | 413 kts | 245° |
| 2026-05-06 02:41 | 57.05221 | 17.13169 | 35971 ft | 413 kts | 245° |
| 2026-05-06 02:41 | 57.02605 | 17.03778 | 35947 ft | 412 kts | 244° |
| 2026-05-06 02:42 | 56.99990 | 16.94431 | 35968 ft | 411 kts | 244° |
| 2026-05-06 02:42 | 56.97365 | 16.85086 | 35963 ft | 411 kts | 244° |
| 2026-05-06 02:43 | 56.94734 | 16.75756 | 35967 ft | 411 kts | 244° |
| 2026-05-06 02:43 | 56.92096 | 16.66440 | 35967 ft | 411 kts | 244° |
| 2026-05-06 02:44 | 56.89452 | 16.57138 | 35975 ft | 412 kts | 244° |
| 2026-05-06 02:44 | 56.86800 | 16.47851 | 35971 ft | 411 kts | 244° |
| 2026-05-06 02:45 | 56.84143 | 16.38579 | 35937 ft | 411 kts | 244° |
| 2026-05-06 02:45 | 56.81478 | 16.29310 | 35968 ft | 412 kts | 244° |
| 2026-05-06 02:46 | 56.78802 | 16.20054 | 35968 ft | 412 kts | 243° |
| 2026-05-06 02:46 | 56.76121 | 16.10812 | 35968 ft | 412 kts | 243° |
| 2026-05-06 02:47 | 56.73432 | 16.01581 | 35970 ft | 412 kts | 243° |
| 2026-05-06 02:47 | 56.70737 | 15.92364 | 35970 ft | 412 kts | 243° |
| 2026-05-06 02:48 | 56.68034 | 15.83156 | 35969 ft | 412 kts | 243° |
| 2026-05-06 02:48 | 56.65323 | 15.73957 | 35927 ft | 412 kts | 243° |
| 2026-05-06 02:49 | 56.62605 | 15.64754 | 35960 ft | 413 kts | 243° |
| 2026-05-06 02:49 | 56.59872 | 15.55561 | 35962 ft | 413 kts | 243° |
| 2026-05-06 02:50 | 56.57134 | 15.46385 | 35956 ft | 413 kts | 242° |
| 2026-05-06 02:50 | 56.54387 | 15.37213 | 35949 ft | 413 kts | 242° |
| 2026-05-06 02:51 | 56.52101 | 15.29606 | 35941 ft | 413 kts | 242° |
| 2026-05-06 02:51 | 56.49344 | 15.20465 | 35938 ft | 413 kts | 242° |
| 2026-05-06 02:52 | 56.46579 | 15.11337 | 35946 ft | 413 kts | 242° |
| 2026-05-06 02:52 | 56.43809 | 15.02200 | 35927 ft | 414 kts | 242° |
| 2026-05-06 02:53 | 56.41023 | 14.93077 | 35949 ft | 414 kts | 242° |
| 2026-05-06 02:53 | 56.38230 | 14.83966 | 35953 ft | 415 kts | 242° |
| 2026-05-06 02:54 | 56.35428 | 14.74858 | 35956 ft | 415 kts | 241° |
| 2026-05-06 02:54 | 56.32620 | 14.65765 | 35957 ft | 415 kts | 241° |
| 2026-05-06 02:55 | 56.29806 | 14.56691 | 35954 ft | 415 kts | 241° |
| 2026-05-06 02:55 | 56.26984 | 14.47625 | 35953 ft | 414 kts | 241° |
| 2026-05-06 02:56 | 56.24152 | 14.38559 | 35952 ft | 416 kts | 240° |
| 2026-05-06 02:56 | 56.21299 | 14.29490 | 35950 ft | 416 kts | 240° |
| 2026-05-06 02:57 | 56.18444 | 14.20426 | 35955 ft | 416 kts | 240° |
| 2026-05-06 02:57 | 56.15585 | 14.11372 | 35945 ft | 416 kts | 240° |
| 2026-05-06 02:58 | 56.12712 | 14.02336 | 35967 ft | 416 kts | 240° |
| 2026-05-06 02:58 | 56.09830 | 13.93320 | 35951 ft | 416 kts | 240° |
| 2026-05-06 02:59 | 56.06939 | 13.84317 | 35951 ft | 416 kts | 240° |
| 2026-05-06 02:59 | 56.04059 | 13.75376 | 35939 ft | 418 kts | 239° |
| 2026-05-06 03:00 | 56.01139 | 13.66361 | 35954 ft | 418 kts | 239° |
| 2026-05-06 03:00 | 55.98213 | 13.57362 | 35936 ft | 418 kts | 239° |
| 2026-05-06 03:01 | 55.95282 | 13.48380 | 35938 ft | 418 kts | 239° |
| 2026-05-06 03:01 | 55.92343 | 13.39411 | 35956 ft | 418 kts | 239° |
| 2026-05-06 03:02 | 55.89397 | 13.30452 | 35935 ft | 418 kts | 239° |
| 2026-05-06 03:02 | 55.86441 | 13.21509 | 35903 ft | 418 kts | 239° |
| 2026-05-06 03:03 | 55.83472 | 13.12549 | 35933 ft | 421 kts | 238° |
| 2026-05-06 03:03 | 55.80508 | 13.03559 | 35960 ft | 421 kts | 240° |
| 2026-05-06 03:04 | 55.77736 | 12.94385 | 35946 ft | 421 kts | 240° |
| 2026-05-06 03:04 | 55.74943 | 12.85233 | 35944 ft | 421 kts | 240° |
| 2026-05-06 03:05 | 55.72142 | 12.76096 | 35939 ft | 421 kts | 240° |
| 2026-05-06 03:05 | 55.69334 | 12.66971 | 35939 ft | 421 kts | 240° |
| 2026-05-06 03:06 | 55.66518 | 12.57857 | 35945 ft | 421 kts | 240° |
| 2026-05-06 03:06 | 55.63711 | 12.48787 | 35931 ft | 424 kts | 239° |
| 2026-05-06 03:07 | 55.60860 | 12.39640 | 35944 ft | 424 kts | 239° |
| 2026-05-06 03:07 | 55.58003 | 12.30511 | 35946 ft | 424 kts | 239° |
| 2026-05-06 03:08 | 55.55139 | 12.21380 | 35946 ft | 424 kts | 239° |
| 2026-05-06 03:08 | 55.52270 | 12.12269 | 35945 ft | 424 kts | 239° |
| 2026-05-06 03:09 | 55.49396 | 12.03178 | 35946 ft | 424 kts | 239° |
| 2026-05-06 03:09 | 55.46517 | 11.94105 | 35946 ft | 424 kts | 239° |
| 2026-05-06 03:10 | 55.43629 | 11.85039 | 35944 ft | 424 kts | 239° |
| 2026-05-06 03:10 | 55.40732 | 11.75978 | 35941 ft | 424 kts | 239° |
| 2026-05-06 03:11 | 55.37829 | 11.66935 | 35954 ft | 424 kts | 239° |
| 2026-05-06 03:11 | 55.34914 | 11.57889 | 35948 ft | 425 kts | 239° |
| 2026-05-06 03:12 | 55.31984 | 11.48828 | 36066 ft | 428 kts | 239° |
| 2026-05-06 03:12 | 55.30510 | 11.44287 | 36442 ft | 427 kts | 239° |
| 2026-05-06 03:12 | 55.29039 | 11.39766 | 36799 ft | 426 kts | 239° |
| 2026-05-06 03:12 | 55.27565 | 11.35244 | 37076 ft | 427 kts | 239° |
| 2026-05-06 03:13 | 55.26085 | 11.30705 | 37314 ft | 429 kts | 239° |
| 2026-05-06 03:13 | 55.24600 | 11.26156 | 37516 ft | 430 kts | 239° |
| 2026-05-06 03:13 | 55.23107 | 11.21591 | 37734 ft | 432 kts | 239° |
| 2026-05-06 03:13 | 55.21624 | 11.17075 | 37930 ft | 434 kts | 239° |
| 2026-05-06 03:14 | 55.20097 | 11.12427 | 37929 ft | 434 kts | 239° |
| 2026-05-06 03:14 | 55.17096 | 11.03319 | 37953 ft | 434 kts | 239° |
| 2026-05-06 03:15 | 55.14068 | 10.94164 | 37949 ft | 435 kts | 239° |
| 2026-05-06 03:15 | 55.11026 | 10.85003 | 37943 ft | 435 kts | 239° |
| 2026-05-06 03:16 | 55.07982 | 10.75870 | 37940 ft | 435 kts | 239° |
| 2026-05-06 03:16 | 55.04927 | 10.66738 | 37923 ft | 435 kts | 239° |
| 2026-05-06 03:17 | 55.01856 | 10.57596 | 37929 ft | 436 kts | 239° |
| 2026-05-06 03:17 | 54.98776 | 10.48472 | 37936 ft | 437 kts | 239° |
| 2026-05-06 03:18 | 54.95689 | 10.39357 | 37938 ft | 437 kts | 239° |
| 2026-05-06 03:18 | 54.92592 | 10.30247 | 37934 ft | 437 kts | 239° |
| 2026-05-06 03:19 | 54.89489 | 10.21158 | 37940 ft | 437 kts | 238° |
| 2026-05-06 03:19 | 54.86378 | 10.12089 | 37942 ft | 437 kts | 238° |
| 2026-05-06 03:20 | 54.81707 | 9.98470 | 37927 ft | 439 kts | 239° |
| 2026-05-06 03:20 | 54.78910 | 9.89017 | 37927 ft | 440 kts | 243° |
| 2026-05-06 03:21 | 54.76207 | 9.79478 | 37927 ft | 440 kts | 242° |
| 2026-05-06 03:21 | 54.73495 | 9.69960 | 37932 ft | 440 kts | 242° |
| 2026-05-06 03:22 | 54.70777 | 9.60455 | 37923 ft | 440 kts | 242° |
| 2026-05-06 03:22 | 54.68055 | 9.50969 | 37921 ft | 440 kts | 242° |
| 2026-05-06 03:23 | 54.65249 | 9.41567 | 37918 ft | 440 kts | 239° |
| 2026-05-06 03:23 | 54.61970 | 9.32622 | 37919 ft | 442 kts | 234° |
| 2026-05-06 03:24 | 54.58378 | 9.24007 | 37917 ft | 442 kts | 233° |
| 2026-05-06 03:24 | 54.54780 | 9.15391 | 37940 ft | 442 kts | 233° |
| 2026-05-06 03:25 | 54.51171 | 9.06796 | 37918 ft | 442 kts | 233° |
| 2026-05-06 03:25 | 54.47561 | 8.98232 | 37918 ft | 442 kts | 233° |
| 2026-05-06 03:26 | 54.43934 | 8.89662 | 37920 ft | 442 kts | 233° |
| 2026-05-06 03:26 | 54.40301 | 8.81107 | 37908 ft | 444 kts | 233° |
| 2026-05-06 03:27 | 54.36643 | 8.72532 | 37911 ft | 445 kts | 233° |
| 2026-05-06 03:27 | 54.32978 | 8.63974 | 37909 ft | 445 kts | 233° |
| 2026-05-06 03:28 | 54.29302 | 8.55427 | 37910 ft | 445 kts | 233° |
| 2026-05-06 03:28 | 54.25618 | 8.46889 | 37921 ft | 445 kts | 232° |
| 2026-05-06 03:29 | 54.21662 | 8.38729 | 37913 ft | 445 kts | 227° |
| 2026-05-06 03:29 | 54.17264 | 8.31257 | 37908 ft | 447 kts | 223° |
| 2026-05-06 03:30 | 54.12780 | 8.24003 | 37911 ft | 447 kts | 223° |
| 2026-05-06 03:30 | 54.08264 | 8.16704 | 37912 ft | 447 kts | 223° |
| 2026-05-06 03:31 | 54.03748 | 8.09415 | 37905 ft | 447 kts | 223° |
| 2026-05-06 03:31 | 53.99227 | 8.02153 | 37904 ft | 447 kts | 223° |
| 2026-05-06 03:32 | 53.94700 | 7.94874 | 37902 ft | 449 kts | 223° |
| 2026-05-06 03:32 | 53.90147 | 7.87583 | 37915 ft | 450 kts | 223° |
| 2026-05-06 03:33 | 53.85583 | 7.80316 | 37898 ft | 450 kts | 223° |
| 2026-05-06 03:33 | 53.81013 | 7.73065 | 37894 ft | 450 kts | 223° |
| 2026-05-06 03:34 | 53.76441 | 7.65836 | 37895 ft | 450 kts | 223° |
| 2026-05-06 03:34 | 53.71855 | 7.58604 | 37890 ft | 452 kts | 223° |
| 2026-05-06 03:35 | 53.67244 | 7.51363 | 37894 ft | 453 kts | 222° |
| 2026-05-06 03:35 | 53.62627 | 7.44136 | 37892 ft | 453 kts | 222° |
| 2026-05-06 03:36 | 53.58006 | 7.36925 | 37885 ft | 453 kts | 222° |
| 2026-05-06 03:36 | 53.53379 | 7.29728 | 37884 ft | 453 kts | 222° |
| 2026-05-06 03:37 | 53.48742 | 7.22538 | 37883 ft | 454 kts | 222° |
| 2026-05-06 03:37 | 53.44080 | 7.15343 | 37887 ft | 456 kts | 222° |
| 2026-05-06 03:38 | 53.39404 | 7.08149 | 37890 ft | 456 kts | 222° |
| 2026-05-06 03:38 | 53.35522 | 7.02162 | 37888 ft | 456 kts | 223° |
| 2026-05-06 03:39 | 53.31149 | 6.94478 | 37884 ft | 456 kts | 229° |
| 2026-05-06 03:39 | 53.26963 | 6.86498 | 37874 ft | 456 kts | 228° |
| 2026-05-06 03:40 | 53.22753 | 6.78551 | 37864 ft | 456 kts | 228° |
| 2026-05-06 03:40 | 53.18547 | 6.70617 | 37862 ft | 456 kts | 228° |
| 2026-05-06 03:41 | 53.14371 | 6.62640 | 37876 ft | 456 kts | 229° |
| 2026-05-06 03:41 | 53.10269 | 6.54563 | 37880 ft | 456 kts | 229° |
| 2026-05-06 03:42 | 53.06154 | 6.46511 | 37872 ft | 457 kts | 229° |
| 2026-05-06 03:42 | 53.02012 | 6.38456 | 37877 ft | 458 kts | 229° |
| 2026-05-06 03:43 | 52.97861 | 6.30421 | 37876 ft | 458 kts | 229° |
| 2026-05-06 03:43 | 52.93702 | 6.22400 | 37884 ft | 458 kts | 229° |
| 2026-05-06 03:44 | 52.89537 | 6.14396 | 37882 ft | 458 kts | 229° |
| 2026-05-06 03:44 | 52.85366 | 6.06409 | 37882 ft | 458 kts | 229° |
| 2026-05-06 03:45 | 52.81185 | 5.98432 | 37893 ft | 459 kts | 228° |
| 2026-05-06 03:45 | 52.76992 | 5.90467 | 37887 ft | 459 kts | 228° |
| 2026-05-06 03:46 | 52.72795 | 5.82509 | 37890 ft | 459 kts | 228° |
| 2026-05-06 03:46 | 52.68603 | 5.74555 | 37887 ft | 459 kts | 228° |
| 2026-05-06 03:47 | 52.64400 | 5.66623 | 37888 ft | 459 kts | 228° |
| 2026-05-06 03:47 | 52.60181 | 5.58704 | 37865 ft | 460 kts | 228° |
| 2026-05-06 03:48 | 52.55945 | 5.50782 | 37867 ft | 461 kts | 228° |
| 2026-05-06 03:48 | 52.51700 | 5.42874 | 37866 ft | 461 kts | 228° |
| 2026-05-06 03:49 | 52.47450 | 5.34983 | 37864 ft | 461 kts | 228° |
| 2026-05-06 03:49 | 52.43200 | 5.27097 | 37867 ft | 461 kts | 228° |
| 2026-05-06 03:50 | 52.39010 | 5.19131 | 37866 ft | 462 kts | 231° |
| 2026-05-06 03:50 | 52.35315 | 5.10497 | 37884 ft | 463 kts | 237° |
| 2026-05-06 03:51 | 52.32268 | 5.01284 | 37888 ft | 464 kts | 244° |
| 2026-05-06 03:51 | 52.29873 | 4.91480 | 37891 ft | 465 kts | 250° |
| 2026-05-06 03:52 | 52.27803 | 4.81479 | 37889 ft | 464 kts | 250° |
| 2026-05-06 03:52 | 52.25735 | 4.71492 | 37891 ft | 463 kts | 250° |
| 2026-05-06 03:53 | 52.23664 | 4.61514 | 37879 ft | 464 kts | 250° |
| 2026-05-06 03:53 | 52.21597 | 4.51555 | 37884 ft | 463 kts | 250° |
| 2026-05-06 03:54 | 52.19507 | 4.41590 | 37877 ft | 464 kts | 250° |
| 2026-05-06 03:54 | 52.17395 | 4.31598 | 37890 ft | 466 kts | 250° |
| 2026-05-06 03:55 | 52.15270 | 4.21600 | 37887 ft | 466 kts | 249° |
| 2026-05-06 03:55 | 52.13136 | 4.11615 | 37896 ft | 466 kts | 249° |
| 2026-05-06 03:56 | 52.10991 | 4.01643 | 37889 ft | 467 kts | 249° |
| 2026-05-06 03:56 | 52.08837 | 3.91688 | 37907 ft | 466 kts | 249° |
| 2026-05-06 03:57 | 52.06686 | 3.81769 | 37900 ft | 463 kts | 249° |
| 2026-05-06 03:57 | 52.04543 | 3.71915 | 37904 ft | 462 kts | 249° |
| 2026-05-06 03:58 | 52.02381 | 3.62077 | 37904 ft | 461 kts | 248° |
| 2026-05-06 03:58 | 51.99829 | 3.52522 | 37908 ft | 461 kts | 242° |
| 2026-05-06 03:59 | 51.96709 | 3.43508 | 37908 ft | 463 kts | 237° |
| 2026-05-06 03:59 | 51.93028 | 3.34979 | 37911 ft | 460 kts | 233° |
| 2026-05-06 04:00 | 51.89375 | 3.26437 | 37915 ft | 459 kts | 239° |
| 2026-05-06 04:00 | 51.86516 | 3.17157 | 37916 ft | 462 kts | 248° |
| 2026-05-06 04:01 | 51.84603 | 3.07265 | 37914 ft | 461 kts | 256° |
| 2026-05-06 04:01 | 51.83632 | 2.96969 | 37918 ft | 463 kts | 262° |
| 2026-05-06 04:02 | 51.82941 | 2.86605 | 37921 ft | 464 kts | 263° |
| 2026-05-06 04:02 | 51.82255 | 2.76198 | 37924 ft | 464 kts | 262° |
| 2026-05-06 04:03 | 51.81555 | 2.65792 | 37924 ft | 466 kts | 263° |
| 2026-05-06 04:03 | 51.80852 | 2.55370 | 37921 ft | 465 kts | 262° |
| 2026-05-06 04:04 | 51.80122 | 2.44959 | 37931 ft | 466 kts | 262° |
| 2026-05-06 04:04 | 51.79380 | 2.34572 | 37927 ft | 465 kts | 262° |
| 2026-05-06 04:05 | 51.78627 | 2.24176 | 37922 ft | 466 kts | 262° |
| 2026-05-06 04:05 | 51.77979 | 2.13846 | 37583 ft | 457 kts | 264° |
| 2026-05-06 04:06 | 51.77692 | 2.08741 | 37109 ft | 453 kts | 263° |
| 2026-05-06 04:06 | 51.77407 | 2.03689 | 36648 ft | 449 kts | 263° |
| 2026-05-06 04:06 | 51.77117 | 1.98689 | 36198 ft | 446 kts | 263° |
| 2026-05-06 04:06 | 51.76819 | 1.93724 | 35781 ft | 442 kts | 263° |
| 2026-05-06 04:07 | 51.76519 | 1.88806 | 35377 ft | 438 kts | 263° |
| 2026-05-06 04:07 | 51.76222 | 1.83933 | 34973 ft | 433 kts | 263° |
| 2026-05-06 04:07 | 51.75922 | 1.79109 | 34565 ft | 430 kts | 263° |
| 2026-05-06 04:07 | 51.75621 | 1.74319 | 34177 ft | 426 kts | 263° |
| 2026-05-06 04:08 | 51.75323 | 1.69577 | 33759 ft | 422 kts | 263° |
| 2026-05-06 04:08 | 51.75030 | 1.64881 | 33313 ft | 418 kts | 262° |
| 2026-05-06 04:08 | 51.74737 | 1.60222 | 32887 ft | 414 kts | 263° |
| 2026-05-06 04:08 | 51.74448 | 1.55611 | 32429 ft | 411 kts | 263° |
| 2026-05-06 04:09 | 51.74160 | 1.51028 | 31984 ft | 409 kts | 263° |
| 2026-05-06 04:09 | 51.73876 | 1.46535 | 31552 ft | 406 kts | 262° |
| 2026-05-06 04:09 | 51.73585 | 1.42020 | 31129 ft | 403 kts | 262° |
| 2026-05-06 04:09 | 51.73289 | 1.37533 | 30701 ft | 400 kts | 263° |
| 2026-05-06 04:10 | 51.72994 | 1.33080 | 30291 ft | 397 kts | 263° |
| 2026-05-06 04:10 | 51.72707 | 1.28660 | 29867 ft | 394 kts | 263° |
| 2026-05-06 04:10 | 51.72417 | 1.24270 | 29413 ft | 391 kts | 262° |
| 2026-05-06 04:10 | 51.72121 | 1.19912 | 28941 ft | 389 kts | 263° |
| 2026-05-06 04:11 | 51.71828 | 1.15592 | 28330 ft | 385 kts | 263° |
| 2026-05-06 04:11 | 51.71537 | 1.11328 | 27672 ft | 379 kts | 262° |
| 2026-05-06 04:11 | 51.71249 | 1.07130 | 26847 ft | 375 kts | 263° |
| 2026-05-06 04:11 | 51.70964 | 1.02957 | 26097 ft | 371 kts | 263° |
| 2026-05-06 04:12 | 51.70680 | 0.98851 | 25413 ft | 366 kts | 263° |
| 2026-05-06 04:12 | 51.70401 | 0.94800 | 24764 ft | 360 kts | 263° |
| 2026-05-06 04:12 | 51.70129 | 0.90810 | 24160 ft | 354 kts | 263° |
| 2026-05-06 04:12 | 51.69859 | 0.86898 | 23562 ft | 348 kts | 263° |
| 2026-05-06 04:13 | 51.69589 | 0.83042 | 22850 ft | 343 kts | 263° |
| 2026-05-06 04:13 | 51.69319 | 0.79225 | 22160 ft | 338 kts | 263° |
| 2026-05-06 04:13 | 51.69054 | 0.75487 | 21495 ft | 333 kts | 263° |
| 2026-05-06 04:13 | 51.68792 | 0.71804 | 20822 ft | 328 kts | 263° |
| 2026-05-06 04:14 | 51.68533 | 0.68167 | 20212 ft | 324 kts | 264° |
| 2026-05-06 04:14 | 51.68277 | 0.64579 | 19575 ft | 320 kts | 264° |
| 2026-05-06 04:14 | 51.68022 | 0.61032 | 18955 ft | 317 kts | 264° |
| 2026-05-06 04:14 | 51.67768 | 0.57517 | 18323 ft | 314 kts | 264° |
| 2026-05-06 04:15 | 51.67515 | 0.54033 | 17624 ft | 312 kts | 264° |
| 2026-05-06 04:15 | 51.67263 | 0.50566 | 16920 ft | 310 kts | 264° |
| 2026-05-06 04:15 | 51.67012 | 0.47134 | 16265 ft | 307 kts | 264° |
| 2026-05-06 04:15 | 51.66767 | 0.43736 | 15646 ft | 303 kts | 264° |
| 2026-05-06 04:16 | 51.66520 | 0.40377 | 15030 ft | 300 kts | 264° |
| 2026-05-06 04:16 | 51.66275 | 0.37051 | 14413 ft | 298 kts | 264° |
| 2026-05-06 04:16 | 51.66029 | 0.33740 | 13775 ft | 297 kts | 264° |
| 2026-05-06 04:16 | 51.65783 | 0.30446 | 13082 ft | 296 kts | 264° |
| 2026-05-06 04:17 | 51.65533 | 0.27160 | 12426 ft | 294 kts | 264° |
| 2026-05-06 04:17 | 51.65285 | 0.23908 | 11797 ft | 291 kts | 264° |
| 2026-05-06 04:17 | 51.65042 | 0.20688 | 11294 ft | 284 kts | 265° |
| 2026-05-06 04:17 | 51.64805 | 0.17569 | 10871 ft | 276 kts | 265° |
| 2026-05-06 04:18 | 51.64583 | 0.14546 | 10447 ft | 268 kts | 266° |
| 2026-05-06 04:18 | 51.64411 | 0.11603 | 10093 ft | 258 kts | 268° |
| 2026-05-06 04:18 | 51.64263 | 0.08755 | 9682 ft | 252 kts | 267° |
| 2026-05-06 04:18 | 51.64116 | 0.05949 | 9175 ft | 250 kts | 268° |
| 2026-05-06 04:19 | 51.63966 | 0.03175 | 8702 ft | 247 kts | 268° |
| 2026-05-06 04:19 | 51.63815 | 0.00437 | 8233 ft | 244 kts | 268° |
| 2026-05-06 04:19 | 51.63669 | -0.02228 | 7786 ft | 241 kts | 268° |
| 2026-05-06 04:19 | 51.63521 | -0.04912 | 7335 ft | 238 kts | 268° |
| 2026-05-06 04:20 | 51.63372 | -0.07535 | 7133 ft | 231 kts | 268° |
| 2026-05-06 04:20 | 51.63225 | -0.10134 | 7053 ft | 230 kts | 268° |
| 2026-05-06 04:20 | 51.63081 | -0.12682 | 7014 ft | 227 kts | 268° |
| 2026-05-06 04:20 | 51.62937 | -0.15212 | 6999 ft | 226 kts | 268° |
| 2026-05-06 04:21 | 51.62793 | -0.17734 | 6994 ft | 226 kts | 268° |
| 2026-05-06 04:21 | 51.62649 | -0.20248 | 6992 ft | 225 kts | 268° |
| 2026-05-06 04:21 | 51.62505 | -0.22766 | 6990 ft | 226 kts | 268° |
| 2026-05-06 04:21 | 51.62360 | -0.25283 | 6992 ft | 225 kts | 268° |
| 2026-05-06 04:22 | 51.62213 | -0.27794 | 6990 ft | 225 kts | 268° |
| 2026-05-06 04:22 | 51.62066 | -0.30311 | 6991 ft | 225 kts | 268° |
| 2026-05-06 04:22 | 51.61919 | -0.32824 | 6993 ft | 225 kts | 268° |
| 2026-05-06 04:23 | 51.61623 | -0.37848 | 6991 ft | 225 kts | 268° |
| 2026-05-06 04:23 | 51.61474 | -0.40359 | 6990 ft | 225 kts | 268° |
| 2026-05-06 04:23 | 51.61325 | -0.42869 | 6987 ft | 225 kts | 268° |
| 2026-05-06 04:23 | 51.61175 | -0.45378 | 6990 ft | 225 kts | 268° |
| 2026-05-06 04:24 | 51.61023 | -0.47917 | 6963 ft | 232 kts | 268° |
| 2026-05-06 04:24 | 51.60868 | -0.50500 | 6707 ft | 231 kts | 267° |
| 2026-05-06 04:24 | 51.60711 | -0.53055 | 6482 ft | 228 kts | 268° |
| 2026-05-06 04:24 | 51.60555 | -0.55589 | 6213 ft | 226 kts | 268° |
| 2026-05-06 04:25 | 51.60403 | -0.58097 | 5939 ft | 224 kts | 268° |
| 2026-05-06 04:25 | 51.60250 | -0.60590 | 5676 ft | 223 kts | 268° |
| 2026-05-06 04:25 | 51.60099 | -0.63063 | 5414 ft | 221 kts | 268° |
| 2026-05-06 04:25 | 51.59949 | -0.65522 | 5149 ft | 220 kts | 268° |
| 2026-05-06 04:26 | 51.59850 | -0.67142 | 4981 ft | 219 kts | 268° |
| 2026-05-06 04:26 | 51.59699 | -0.69580 | 4718 ft | 218 kts | 268° |
| 2026-05-06 04:26 | 51.59550 | -0.71998 | 4442 ft | 217 kts | 268° |
| 2026-05-06 04:26 | 51.59402 | -0.74408 | 4186 ft | 216 kts | 267° |
| 2026-05-06 04:27 | 51.59143 | -0.76773 | 3950 ft | 215 kts | 251° |
| 2026-05-06 04:27 | 51.58313 | -0.78782 | 3813 ft | 219 kts | 224° |
| 2026-05-06 04:27 | 51.56968 | -0.79810 | 3670 ft | 213 kts | 189° |
| 2026-05-06 04:27 | 51.55530 | -0.79900 | 3534 ft | 202 kts | 176° |
| 2026-05-06 04:28 | 51.54144 | -0.79745 | 3509 ft | 199 kts | 173° |
| 2026-05-06 04:28 | 51.52761 | -0.79571 | 3507 ft | 200 kts | 174° |
| 2026-05-06 04:28 | 51.51374 | -0.79427 | 3501 ft | 200 kts | 175° |
| 2026-05-06 04:28 | 51.50039 | -0.78952 | 3390 ft | 195 kts | 150° |
| 2026-05-06 04:29 | 51.48977 | -0.77662 | 3224 ft | 190 kts | 131° |
| 2026-05-06 04:29 | 51.48070 | -0.76137 | 3031 ft | 187 kts | 127° |
| 2026-05-06 04:29 | 51.47520 | -0.74334 | 3000 ft | 180 kts | 95° |
| 2026-05-06 04:29 | 51.47505 | -0.72335 | 2879 ft | 179 kts | 82° |
| 2026-05-06 04:30 | 51.47606 | -0.70383 | 2750 ft | 177 kts | 83° |
| 2026-05-06 04:30 | 51.47673 | -0.68408 | 2624 ft | 177 kts | 85° |
| 2026-05-06 04:30 | 51.47700 | -0.66433 | 2380 ft | 175 kts | 86° |
| 2026-05-06 04:30 | 51.47707 | -0.64532 | 2108 ft | 165 kts | 86° |
| 2026-05-06 04:31 | 51.47709 | -0.62750 | 1883 ft | 156 kts | 86° |
| 2026-05-06 04:31 | 51.47712 | -0.61019 | 1689 ft | 154 kts | 85° |
| 2026-05-06 04:31 | 51.47717 | -0.59295 | 1492 ft | 154 kts | 85° |
| 2026-05-06 04:31 | 51.47723 | -0.57582 | 1273 ft | 153 kts | 86° |
| 2026-05-06 04:32 | 51.47727 | -0.55873 | 1056 ft | 153 kts | 86° |
| 2026-05-06 04:32 | 51.47734 | -0.54169 | 832 ft | 152 kts | 86° |
| 2026-05-06 04:32 | 51.47736 | -0.52466 | 642 ft | 152 kts | 86° |
| 2026-05-06 04:32 | 51.47742 | -0.50769 | 397 ft | 151 kts | 86° |
| 2026-05-06 04:33 | 51.47746 | -0.49085 | 198 ft | 151 kts | 86° |
| 2026-05-06 04:33 | 51.47749 | -0.47412 | 98 ft | 143 kts | 86° |
| 2026-05-06 04:33 | 51.47760 | -0.46101 | 97 ft | 86 kts | 90° |
| 2026-05-06 04:33 | 51.47762 | -0.45483 | 94 ft | 32 kts | 90° |
| 2026-05-06 04:34 | 51.47763 | -0.45181 | 96 ft | 26 kts | 89° |
| 2026-05-06 04:34 | 51.47754 | -0.44943 | 98 ft | 18 kts | 109° |
| 2026-05-06 04:34 | 51.47687 | -0.44831 | 99 ft | 11 kts | 146° |
| 2026-05-06 04:34 | 51.47623 | -0.44801 | 97 ft | 10 kts | 206° |
| 2026-05-06 04:35 | 51.47599 | -0.44924 | 95 ft | 14 kts | 269° |
| 2026-05-06 04:35 | 51.47598 | -0.45066 | 95 ft | 11 kts | 270° |
| 2026-05-06 04:35 | 51.47597 | -0.45206 | 95 ft | 14 kts | 270° |
| 2026-05-06 04:35 | 51.47597 | -0.45376 | 94 ft | 17 kts | 270° |
| 2026-05-06 04:36 | 51.47596 | -0.45566 | 95 ft | 16 kts | 270° |
| 2026-05-06 04:36 | 51.47594 | -0.45681 | 97 ft | 7 kts | 258° |
| 2026-05-06 04:36 | 51.47560 | -0.45736 | 98 ft | 9 kts | 198° |
| 2026-05-06 04:36 | 51.47519 | -0.45815 | 96 ft | 11 kts | 264° |
| 2026-05-06 04:37 | 51.47518 | -0.45958 | 94 ft | 14 kts | 270° |
| 2026-05-06 04:37 | 51.47517 | -0.46118 | 94 ft | 14 kts | 270° |
| 2026-05-06 04:37 | 51.47516 | -0.46267 | 94 ft | 14 kts | 269° |
| 2026-05-06 04:37 | 51.47516 | -0.46438 | 94 ft | 16 kts | 270° |
| 2026-05-06 04:38 | 51.47515 | -0.46586 | 94 ft | 11 kts | 269° |
| 2026-05-06 04:38 | 51.47510 | -0.46707 | 96 ft | 9 kts | 251° |
| 2026-05-06 04:38 | 51.47496 | -0.46796 | 98 ft | 8 kts | 265° |
| 2026-05-06 04:38 | 51.47494 | -0.46909 | 96 ft | 12 kts | 269° |
| 2026-05-06 04:39 | 51.47493 | -0.47057 | 95 ft | 15 kts | 269° |
| 2026-05-06 04:39 | 51.47492 | -0.47234 | 94 ft | 14 kts | 270° |
| 2026-05-06 04:39 | 51.47483 | -0.47320 | 95 ft | 8 kts | 238° |
| 2026-05-06 04:39 | 51.47425 | -0.47356 | 95 ft | 11 kts | 179° |
| 2026-05-06 04:40 | 51.47337 | -0.47354 | 94 ft | 13 kts | 180° |
| 2026-05-06 04:40 | 51.47262 | -0.47354 | 95 ft | 12 kts | 179° |
| 2026-05-06 04:40 | 51.47193 | -0.47353 | 95 ft | 9 kts | 180° |
| 2026-05-06 04:40 | 51.47148 | -0.47383 | 98 ft | 7 kts | 243° |
| 2026-05-06 04:41 | 51.47144 | -0.47448 | 96 ft | 4 kts | 269° |
| 2026-05-06 04:41 | 51.47144 | -0.47478 | 97 ft | 2 kts | 269° |
| 2026-05-06 04:41 | 51.47144 | -0.47485 | 97 ft | 0 kts | 269° |
| 2026-05-06 04:41 | 51.47144 | -0.47486 | 97 ft | 0 kts | 269° |